Flight Track Log - Related Links

Times and Time Zones

All times are in EDT time to prevent confusion due to time zone crossing. See the ACA532 flight status page for this flight to view local times or setup timezone preferences in your user account.

Time Position Orientation Groundspeed Altitude Reporting Facility
EDT Latitude Longitude Course Direction KTS MPH feet Rate Location/Type
Sun 11:13:06 AM 45.5797 -122.5600 84° East 160 184 900  Level Seattle Center
Sun 11:17:09 AM 45.6053 -122.2089 60° Northeast 280 322 10,300 2,151 Climbing Seattle Center
Sun 11:18:10 AM 45.6500 -122.0992 61° Northeast 320 368 11,800 1,918 Climbing Seattle Center
Sun 11:19:11 AM 45.6967 -121.9778 62° Northeast 346 398 14,200 2,311 Climbing Seattle Center
Sun 11:20:12 AM 45.7450 -121.8492 89° East 355 409 16,500 1,918 Climbing Seattle Center
Sun 11:21:13 AM 45.7461 -121.6956 91° East 382 440 18,100 1,918 Climbing Seattle Center
Sun 11:22:14 AM 45.7447 -121.5111 91° East 388 447 20,400 1,934 Climbing Seattle Center
Sun 11:23:14 AM 45.7433 -121.3508 90° East 398 458 22,000 1,451 Climbing Seattle Center
Sun 11:25:16 AM 45.7411 -121.0500 91° East 423 487 24,800 1,377 Climbing Seattle Center
Sun 11:26:17 AM 45.7378 -120.8444 91° East 430 495 26,200 1,279 Climbing Seattle Center
Sun 11:27:18 AM 45.7353 -120.6672 91° East 441 507 27,400 1,284 Climbing Seattle Center
Sun 11:30:20 AM 45.7267 -120.1361 92° East 445 512 31,400 1,333 Climbing Seattle Center
Sun 11:31:21 AM 45.7228 -119.9644 92° East 438 504 32,800 1,131 Climbing Seattle Center
Sun 11:32:22 AM 45.7186 -119.7956 92° East 430 495 33,700 787 Climbing Seattle Center
Sun 11:33:23 AM 45.7153 -119.6275 92° East 426 490 34,400 689 Climbing Seattle Center
Sun 11:34:24 AM 45.7117 -119.4578 92° East 426 490 35,100 595 Climbing Seattle Center
Sun 11:35:24 AM 45.7064 -119.2883 92° East 427 491 35,600 545 Climbing Seattle Center
Sun 11:36:25 AM 45.7014 -119.0828 92° East 430 495 36,200 541 Climbing Seattle Center
Sun 11:37:26 AM 45.6981 -118.9111 85° East 432 497 36,700 393 Climbing Seattle Center
Sun 11:38:27 AM 45.7078 -118.7450 86° East 424 488 37,000 148 Climbing Seattle Center
Sun 11:39:28 AM 45.7167 -118.5797 86° East 418 481 37,000  Level Seattle Center
Sun 11:40:29 AM 45.7247 -118.4103 86° East 424 488 37,000  Level Seattle Center
Sun 11:41:30 AM 45.7325 -118.2433 86° East 424 488 37,000  Level Seattle Center
Sun 11:42:30 AM 45.7403 -118.0769 86° East 421 484 37,000  Level Seattle Center
Sun 11:43:31 AM 45.7475 -117.9100 86° East 423 487 37,000  Level Seattle Center
Sun 11:44:32 AM 45.7553 -117.7450 86° East 420 483 37,000  Level Seattle Center
Sun 11:45:33 AM 45.7628 -117.5794 86° East 419 482 37,000  Level Seattle Center
Sun 11:46:34 AM 45.7703 -117.4114 87° East 422 486 37,000  Level Seattle Center
Sun 11:47:35 AM 45.7769 -117.2442 87° East 422 486 37,000  Level Seattle Center
Sun 11:48:36 AM 45.7831 -117.0764 87° East 425 489 37,000  Level Seattle Center
Sun 11:49:37 AM 45.7906 -116.8722 87° East 428 493 37,000  Level Seattle Center
Sun 11:50:38 AM 45.7958 -116.7006 87° East 432 497 37,000  Level Seattle Center
Sun 11:51:39 AM 45.8014 -116.5267 87° East 436 502 37,000  Level Seattle Center
Sun 11:52:40 AM 45.8075 -116.3514 88° East 440 506 37,000  Level Seattle Center
Sun 11:53:41 AM 45.8125 -116.1756 87° East 443 510 37,000  Level Seattle Center
Sun 11:54:42 AM 45.8181 -115.9981 88° East 446 513 37,000  Level Seattle Center
Sun 11:55:43 AM 45.8233 -115.8178 88° East 451 519 37,000  Level Seattle Center
Sun 11:56:44 AM 45.8281 -115.6342 88° East 458 527 37,000  Level Seattle Center
Sun 11:57:45 AM 45.8333 -115.4208 88° East 460 529 37,000  Level Seattle Center
Sun 11:58:46 AM 45.8372 -115.2481 88° East 456 525 37,000  Level Seattle Center
Sun 11:59:48 AM 45.8403 -115.0769 88° East 451 519 37,000  Level Seattle Center
Sun 12:00:49 PM 45.8444 -114.8775 88° East 449 517 37,000  Level Seattle Center
Sun 12:01:50 PM 45.8475 -114.7042 89° East 451 519 37,000  Level Seattle Center
Sun 12:02:51 PM 45.8500 -114.5211 89° East 452 520 37,000  Level Seattle Center
Sun 12:04:23 PM 45.8547 -114.2378 89° East 455 524 37,000  Level Salt Lake Center
Sun 12:05:24 PM 45.8564 -114.0561 89° East 458 527 37,000  Level Salt Lake Center
Sun 12:06:26 PM 45.8578 -113.8739 89° East 459 528 37,000  Level Salt Lake Center
Sun 12:07:28 PM 45.8594 -113.6906 89° East 461 531 37,000  Level Salt Lake Center
Sun 12:08:29 PM 45.8608 -113.5094 89° East 459 528 37,000  Level Salt Lake Center
Sun 12:09:31 PM 45.8622 -113.3247 90° East 462 532 37,000  Level Salt Lake Center
Sun 12:10:33 PM 45.8628 -113.1061 90° East 459 528 37,000  Level Salt Lake Center
Sun 12:11:34 PM 45.8633 -112.9261 90° East 454 522 37,000  Level Salt Lake Center
Sun 12:12:36 PM 45.8633 -112.7450 90° East 455 524 37,000  Level Salt Lake Center
Sun 12:13:37 PM 45.8622 -112.5611 90° East 459 528 37,000  Level Salt Lake Center
Sun 12:14:39 PM 45.8622 -112.3814 90° East 454 522 37,000  Level Salt Lake Center
Sun 12:15:41 PM 45.8614 -112.2014 90° East 452 520 37,000  Level Salt Lake Center
Sun 12:16:42 PM 45.8608 -112.0208 90° East 452 520 37,000  Level Salt Lake Center
Sun 12:17:44 PM 45.8611 -111.8406 90° East 453 521 37,000  Level Salt Lake Center
Sun 12:18:46 PM 45.8603 -111.6239 90° East 453 521 37,000  Level Salt Lake Center
Sun 12:19:47 PM 45.8597 -111.4461 90° East 447 514 37,000  Level Salt Lake Center
Sun 12:20:49 PM 45.8592 -111.2622 91° East 452 520 37,000  Level Salt Lake Center
Sun 12:21:51 PM 45.8572 -111.0708 91° East 457 526 37,000  Level Salt Lake Center
Sun 12:22:52 PM 45.8553 -110.8869 91° East 454 522 37,000  Level Salt Lake Center
Sun 12:23:54 PM 45.8533 -110.7044 91° East 455 524 37,000  Level Salt Lake Center
Sun 12:24:56 PM 45.8506 -110.5322 91° East 459 528 37,000  Level Salt Lake Center
Sun 12:25:58 PM 45.8472 -110.3286 91° East 458 527 37,000  Level Salt Lake Center
Sun 12:26:59 PM 45.8447 -110.1542 92° East 457 526 37,000  Level Salt Lake Center
Sun 12:28:01 PM 45.8408 -109.9508 91° East 457 526 37,000  Level Salt Lake Center
Sun 12:29:03 PM 45.8389 -109.7747 91° East 459 528 37,000  Level Salt Lake Center
Sun 12:30:04 PM 45.8353 -109.5697 92° East 460 529 37,000  Level Salt Lake Center
Sun 12:31:06 PM 45.8303 -109.3914 92° East 465 535 37,000  Level Salt Lake Center
Sun 12:32:08 PM 45.8258 -109.2128 92° East 467 537 37,000  Level Salt Lake Center
Sun 12:33:09 PM 45.8200 -109.0031 92° East 469 540 37,000  Level Salt Lake Center
Sun 12:34:11 PM 45.8147 -108.8239 91° East 470 541 37,000  Level Salt Lake Center
Sun 12:35:13 PM 45.8108 -108.6164 83° East 465 535 37,000  Level Salt Lake Center
Sun 12:36:15 PM 45.8267 -108.4336 84° East 478 550 37,000  Level Salt Lake Center
Sun 12:37:16 PM 45.8389 -108.2542 83° East 474 545 37,000  Level Salt Lake Center
Sun 12:38:18 PM 45.8564 -108.0414 84° East 478 550 37,000  Level Salt Lake Center
Sun 12:39:20 PM 45.8706 -107.8592 84° East 479 551 37,000  Level Salt Lake Center
Sun 12:40:22 PM 45.8864 -107.6469 84° East 478 550 37,000  Level Salt Lake Center
Sun 12:41:23 PM 45.9008 -107.4619 84° East 483 556 37,000  Level Salt Lake Center
Sun 12:42:25 PM 45.9164 -107.2458 84° East 485 558 37,000  Level Salt Lake Center
Sun 12:43:27 PM 45.9303 -107.0600 84° East 487 560 37,000  Level Salt Lake Center
Sun 12:44:29 PM 45.9433 -106.8728 84° East 490 564 37,000  Level Salt Lake Center
Sun 12:45:30 PM 45.9583 -106.6572 85° East 488 562 37,000  Level Salt Lake Center
Sun 12:46:32 PM 45.9692 -106.4725 85° East 486 559 37,000  Level Salt Lake Center
Sun 12:47:34 PM 45.9819 -106.2592 85° East 482 555 37,000  Level Salt Lake Center
Sun 12:48:36 PM 45.9939 -106.0772 84° East 480 552 37,000  Level Salt Lake Center
Sun 12:49:37 PM 46.0103 -105.8625 81° East 482 555 37,000  Level Salt Lake Center
Sun 12:50:39 PM 46.0314 -105.6792 80° East 485 558 37,000  Level Salt Lake Center
Sun 12:51:41 PM 46.0536 -105.4983 81° East 483 556 37,000  Level Salt Lake Center
Sun 12:52:43 PM 46.0758 -105.2875 81° East 480 552 37,000  Level Salt Lake Center
Sun 12:53:44 PM 46.0953 -105.1050 82° East 480 552 37,000  Level Salt Lake Center
Sun 12:54:46 PM 46.1169 -104.8892 82° East 484 557 37,000  Level Salt Lake Center
Sun 12:55:48 PM 46.1350 -104.7047 82° East 485 558 37,000  Level Salt Lake Center
Sun 12:56:50 PM 46.1558 -104.4883 82° East 487 560 37,000  Level Salt Lake Center
Sun 12:57:51 PM 46.1747 -104.2978 82° East 492 566 37,000  Level Salt Lake Center
Sun 12:58:53 PM 46.1925 -104.1014 83° East 495 570 37,000  Level Salt Lake Center
Sun 12:59:55 PM 46.2097 -103.9061 82° East 495 570 37,000  Level Salt Lake Center
Sun 01:00:57 PM 46.2281 -103.7100 83° East 495 570 37,000  Level Salt Lake Center
Sun 01:01:58 PM 46.2456 -103.5122 83° East 498 573 37,000  Level Salt Lake Center
Sun 01:03:00 PM 46.2628 -103.3172 83° East 496 571 37,000  Level Salt Lake Center
Sun 01:04:02 PM 46.2819 -103.0819 84° East 495 570 37,000  Level Salt Lake Center
Sun 01:05:04 PM 46.2972 -102.8850 83° East 495 570 37,000  Level Salt Lake Center
Sun 01:06:05 PM 46.3133 -102.6897 83° East 495 570 37,000  Level Salt Lake Center
Sun 01:07:07 PM 46.3289 -102.4953 83° East 492 566 37,000  Level Salt Lake Center
Sun 01:08:09 PM 46.3444 -102.2983 83° East 492 566 37,000  Level Salt Lake Center
Sun 01:09:06 PM 46.3600 -102.1053 83° East 489 563 37,000  Level Minneapolis Center
Sun 01:10:05 PM 46.3767 -101.9117 84° East 489 563 37,000  Level Minneapolis Center
Sun 01:11:06 PM 46.3914 -101.7117 84° East 494 568 37,000  Level Minneapolis Center
Sun 01:12:05 PM 46.4061 -101.5086 85° East 494 568 37,000  Level Minneapolis Center
Sun 01:13:05 PM 46.4178 -101.3111 84° East 494 568 37,000  Level Minneapolis Center
Sun 01:14:05 PM 46.4311 -101.1167 84° East 494 568 37,000  Level Minneapolis Center
Sun 01:15:06 PM 46.4444 -100.9161 84° East 494 568 37,000  Level Minneapolis Center
Sun 01:16:05 PM 46.4597 -100.7128 85° East 494 568 37,000  Level Minneapolis Center
Sun 01:17:05 PM 46.4722 -100.5122 85° East 494 568 37,000  Level Minneapolis Center
Sun 01:18:05 PM 46.4844 -100.3114 85° East 494 568 37,000  Level Minneapolis Center
Sun 01:19:06 PM 46.4967 -100.1072 83° East 501 577 37,000  Level Minneapolis Center
Sun 01:20:05 PM 46.5125 -99.9039 82° East 501 577 37,000  Level Minneapolis Center
Sun 01:21:05 PM 46.5319 -99.7036 83° East 501 577 37,000  Level Minneapolis Center
Sun 01:22:05 PM 46.5489 -99.5061 83° East 495 570 37,000  Level Minneapolis Center
Sun 01:23:05 PM 46.5656 -99.3083 83° East 495 570 37,000  Level Minneapolis Center
Sun 01:24:06 PM 46.5819 -99.1106 82° East 495 570 37,000  Level Minneapolis Center
Sun 01:25:05 PM 46.5997 -98.9128 82° East 495 570 37,000  Level Minneapolis Center
Sun 01:26:05 PM 46.6172 -98.7208 84° East 490 564 37,000  Level Minneapolis Center
Sun 01:27:05 PM 46.6303 -98.5253 83° East 485 558 37,000  Level Minneapolis Center
Sun 01:28:05 PM 46.6472 -98.3300 85° East 485 558 37,000  Level Minneapolis Center
Sun 01:29:05 PM 46.6597 -98.1314 83° East 485 558 37,000  Level Minneapolis Center
Sun 01:30:06 PM 46.6758 -97.9361 84° East 480 552 37,000  Level Minneapolis Center
Sun 01:31:05 PM 46.6894 -97.7433 83° East 480 552 37,000  Level Minneapolis Center
Sun 01:32:06 PM 46.7050 -97.5475 85° East 480 552 37,000  Level Minneapolis Center
Sun 01:33:05 PM 46.7158 -97.3544 83° East 480 552 37,000  Level Minneapolis Center
Sun 01:34:05 PM 46.7328 -97.1589 85° East 480 552 37,000  Level Minneapolis Center
Sun 01:35:05 PM 46.7453 -96.9628 85° East 475 547 37,000  Level Minneapolis Center
Sun 01:36:05 PM 46.7575 -96.7664 88° East 481 554 37,000  Level Minneapolis Center
Sun 01:37:05 PM 46.7608 -96.5725 88° East 475 547 37,000  Level Minneapolis Center
Sun 01:38:05 PM 46.7658 -96.3881 88° East 468 539 37,000  Level Minneapolis Center
Sun 01:39:05 PM 46.7706 -96.1972 87° East 463 533 37,000  Level Minneapolis Center
Sun 01:40:05 PM 46.7767 -96.0156 89° East 458 527 37,000  Level Minneapolis Center
Sun 01:41:05 PM 46.7786 -95.8308 88° East 458 527 37,000  Level Minneapolis Center
Sun 01:42:05 PM 46.7825 -95.6431 87° East 458 527 37,000  Level Minneapolis Center
Sun 01:43:05 PM 46.7881 -95.4583 89° East 458 527 37,000  Level Minneapolis Center
Sun 01:44:06 PM 46.7911 -95.2703 89° East 458 527 37,000  Level Minneapolis Center
Sun 01:45:06 PM 46.7939 -95.0825 89° East 463 533 37,000  Level Minneapolis Center
Sun 01:46:05 PM 46.7967 -94.8914 89° East 458 527 37,000  Level Minneapolis Center
Sun 01:47:05 PM 46.7989 -94.7036 89° East 458 527 37,000  Level Minneapolis Center
Sun 01:48:05 PM 46.8008 -94.5094 89° East 463 533 37,000  Level Minneapolis Center
Sun 01:49:06 PM 46.8025 -94.3183 89° East 463 533 37,000  Level Minneapolis Center
Sun 01:50:05 PM 46.8036 -94.1275 89° East 463 533 37,000  Level Minneapolis Center
Sun 01:51:05 PM 46.8047 -93.9364 90° East 463 533 37,000  Level Minneapolis Center
Sun 01:52:05 PM 46.8053 -93.7453 90° East 463 533 37,000  Level Minneapolis Center
Sun 01:53:06 PM 46.8058 -93.5544 90° East 463 533 37,000  Level Minneapolis Center
Sun 01:54:05 PM 46.8058 -93.3603 90° East 463 533 37,000  Level Minneapolis Center
Sun 01:55:05 PM 46.8056 -93.1661 90° East 468 539 37,000  Level Minneapolis Center
Sun 01:58:06 PM 46.8047 -92.5717 91° East 473 544 37,000 -25 Level Minneapolis Center
Sun 01:59:05 PM 46.8031 -92.3808 94° East 473 544 36,900  Descending Minneapolis Center
Sun 02:00:05 PM 46.7928 -92.1900 112° Southeast 473 544 37,000 25 Climbing Minneapolis Center
Sun 02:03:06 PM 46.6483 -91.6700 113° Southeast 458 527 37,000  Level Minneapolis Center
Sun 02:04:05 PM 46.6044 -91.5175 113° Southeast 458 527 37,000  Level Minneapolis Center
Sun 02:05:06 PM 46.5556 -91.3469 113° Southeast 453 521 37,000  Level Minneapolis Center
Sun 02:06:05 PM 46.5044 -91.1739 112° Southeast 453 521 37,000  Level Minneapolis Center
Sun 02:07:05 PM 46.4572 -91.0042 114° Southeast 453 521 37,000  Level Minneapolis Center
Sun 02:08:05 PM 46.4056 -90.8347 113° Southeast 453 521 37,000  Level Minneapolis Center
Sun 02:09:06 PM 46.3556 -90.6628 114° Southeast 453 521 37,000  Level Minneapolis Center
Sun 02:10:05 PM 46.3033 -90.4939 113° Southeast 453 521 37,000  Level Minneapolis Center
Sun 02:11:06 PM 46.2531 -90.3256 113° Southeast 453 521 37,000  Level Minneapolis Center
Sun 02:12:05 PM 46.2025 -90.1544 114° Southeast 458 527 37,000  Level Minneapolis Center
Sun 02:13:06 PM 46.1517 -89.9867 114° Southeast 458 527 37,000  Level Minneapolis Center
Sun 02:14:05 PM 46.0983 -89.8161 113° Southeast 458 527 37,000  Level Minneapolis Center
Sun 02:15:06 PM 46.0492 -89.6458 114° Southeast 458 527 37,000  Level Minneapolis Center
Sun 02:16:05 PM 45.9928 -89.4614 115° Southeast 458 527 37,000  Level Minneapolis Center
Sun 02:17:05 PM 45.9367 -89.2922 113° Southeast 457 526 37,000  Level Minneapolis Center
Sun 02:18:05 PM 45.8917 -89.1433 114° Southeast 457 526 37,000  Level Minneapolis Center
Sun 02:19:05 PM 45.8344 -88.9569 117° Southeast 452 520 37,000  Level Minneapolis Center
Sun 02:20:05 PM 45.7756 -88.7919 114° Southeast 458 527 37,000  Level Minneapolis Center
Sun 02:21:06 PM 45.7250 -88.6264 115° Southeast 458 527 37,000  Level Minneapolis Center
Sun 02:22:05 PM 45.6697 -88.4558 116° Southeast 458 527 37,000  Level Minneapolis Center
Sun 02:23:05 PM 45.6142 -88.2914 114° Southeast 458 527 37,000  Level Minneapolis Center
Sun 02:24:06 PM 45.5631 -88.1297 115° Southeast 452 520 37,000  Level Minneapolis Center
Sun 02:25:05 PM 45.5167 -87.9858 117° Southeast 452 520 37,000  Level Minneapolis Center
Sun 02:26:06 PM 45.4583 -87.8197 115° Southeast 452 520 37,000  Level Minneapolis Center
Sun 02:27:06 PM 45.4042 -87.6564 115° Southeast 452 520 37,000  Level Minneapolis Center
Sun 02:28:05 PM 45.3497 -87.4875 116° Southeast 457 526 37,000  Level Minneapolis Center
Sun 02:29:05 PM 45.2928 -87.3222 116° Southeast 457 526 37,000  Level Minneapolis Center
Sun 02:30:05 PM 45.2358 -87.1572 116° Southeast 457 526 37,000  Level Minneapolis Center
Sun 02:31:05 PM 45.1806 -86.9950 116° Southeast 457 526 37,000  Level Minneapolis Center
Sun 02:32:05 PM 45.1231 -86.8308 117° Southeast 457 526 37,000  Level Minneapolis Center
Sun 02:33:06 PM 45.0581 -86.6469 116° Southeast 457 526 37,000  Level Minneapolis Center
Sun 02:34:06 PM 44.9997 -86.4806 117° Southeast 462 532 37,000  Level Minneapolis Center
Sun 02:35:06 PM 44.9392 -86.3117 116° Southeast 473 544 37,000  Level Minneapolis Center
Sun 02:36:06 PM 44.8878 -86.1625 116° Southeast 478 550 37,000  Level Minneapolis Center
Sun 02:37:05 PM 44.8286 -85.9939 118° Southeast 473 544 37,000  Level Minneapolis Center
Sun 02:38:05 PM 44.7678 -85.8319 116° Southeast 473 544 37,000  Level Minneapolis Center
Sun 02:39:06 PM 44.7003 -85.6392 129° Southeast 473 544 37,000  Level Minneapolis Center
Sun 02:40:06 PM 44.6194 -85.4981 142° Southeast 463 533 37,000  Level Minneapolis Center
Sun 02:41:06 PM 44.5197 -85.3894 142° Southeast 455 524 37,000  Level Minneapolis Center
Sun 02:42:05 PM 44.4200 -85.2811 142° Southeast 455 524 37,000  Level Minneapolis Center
Sun 02:43:06 PM 44.3222 -85.1756 142° Southeast 455 524 37,000  Level Minneapolis Center
Sun 02:44:06 PM 44.2225 -85.0681 142° Southeast 449 517 37,000  Level Minneapolis Center
Sun 02:47:59 PM 43.8453 -84.6589 142° Southeast 454 522 37,000  Level Cleveland Center
Sun 02:48:59 PM 43.7447 -84.5486 117° Southeast 454 522 37,000  Level Cleveland Center
Sun 02:49:59 PM 43.6856 -84.3897 106° East 454 522 37,000  Level Cleveland Center
Sun 02:50:59 PM 43.6475 -84.2125 93° East 461 531 37,000  Level Cleveland Center
Sun 02:51:59 PM 43.6406 -84.0283 94° East 459 528 37,000  Level Cleveland Center
Sun 02:52:59 PM 43.6328 -83.8614 93° East 476 548 37,000  Level Cleveland Center
Sun 02:53:59 PM 43.6239 -83.6575 92° East 487 560 37,000  Level Cleveland Center
Sun 02:54:59 PM 43.6181 -83.4736 92° East 487 560 37,000  Level Cleveland Center
Sun 02:55:59 PM 43.6122 -83.2897 93° East 481 554 37,000  Level Cleveland Center
Sun 02:56:59 PM 43.6039 -83.1003 94° East 489 563 37,000 -950 Level Cleveland Center
Sun 02:57:59 PM 43.5933 -82.9106 92° East 489 563 35,100 -2,300 Descending Cleveland Center
Sun 02:58:59 PM 43.5886 -82.7269 95° East 489 563 32,400 -2,650 Descending Cleveland Center
Sun 02:59:59 PM 43.5772 -82.5431 93° East 483 556 29,800 -1,700 Descending Cleveland Center
Sun 03:00:59 PM 43.5697 -82.3594 95° East 478 550 29,000 -400 Descending Cleveland Center
Sun 03:01:59 PM 43.5597 -82.1903 92° East 486 559 29,000  Level Cleveland Center
Sun 03:03:26 PM 43.5500 -81.8833 97° East 490 564 29,000 -408 Level Toronto Center
Sun 03:04:26 PM 43.5333 -81.7000 97° East 480 552 28,000 -1,000 Descending Toronto Center
Sun 03:05:26 PM 43.5167 -81.5167 98° East 480 552 27,000 -1,000 Descending Toronto Center
Sun 03:06:26 PM 43.5000 -81.3500 90° East 470 541 26,000 -1,000 Descending Toronto Center
Sun 03:07:26 PM 43.5000 -81.1667 97° East 460 529 25,000 -1,000 Descending Toronto Center
Sun 03:08:26 PM 43.4833 -80.9833 99° East 450 518 24,000 -1,000 Descending Toronto Center
Sun 03:09:26 PM 43.4667 -80.8333 90° East 440 506 23,000 -1,450 Descending Toronto Center
Sun 03:10:26 PM 43.4667 -80.6667 90° East 420 483 21,100 -2,000 Descending Toronto Center
Sun 03:11:26 PM 43.4667 -80.5333 98° East 410 472 19,000 -2,000 Descending Toronto Center
Sun 03:12:26 PM 43.4500 -80.3667 68° East 400 460 17,100 -1,650 Descending Toronto Center
Sun 03:13:26 PM 43.4833 -80.2500 71° East 360 414 15,700 -1,350 Descending Toronto Center
Sun 03:14:26 PM 43.5167 -80.1167 68° East 330 380 14,400 -1,550 Descending Toronto Center
Sun 03:15:26 PM 43.5500 -80.0000 68° East 330 380 12,600 -1,750 Descending Toronto Center
Sun 03:16:26 PM 43.5833 -79.8833 90° East 320 368 10,900 -1,500 Descending Toronto Center
Sun 03:17:26 PM 43.5833 -79.7667 90° East 310 357 9,600 -1,300 Descending Toronto Center
Sun 03:18:26 PM 43.5833 -79.6500 90° East 290 334 8,300 -1,150 Descending Toronto Center
Sun 03:19:26 PM 43.5833 -79.5667 55° Northeast 270 311 7,300 -1,000 Descending Toronto Center
Sun 03:20:26 PM 43.6167 -79.5000 55° Northeast 240 276 6,300 -950 Descending Toronto Center
Sun 03:21:26 PM 43.6500 -79.4333 50° Northeast 220 253 5,400 -950 Descending Toronto Center
Sun 03:22:26 PM 43.7000 -79.3500 324° Northwest 210 242 4,400 -800 Descending Toronto Center
Sun 03:23:26 PM 43.7333 -79.3833 270° West 190 219 3,800 -750 Descending Toronto Center
Sun 03:24:26 PM 43.7333 -79.4500 270° West 190 219 2,900 -900 Descending Toronto Center

Login

Don't have an account? Register now (free) for customized features, flight alerts, and more!